createdAt,value
2019-04-21T00:00:54.282Z,6.30
2019-04-21T00:03:26.048Z,5.75
2019-04-21T00:06:08.929Z,5.47
2019-04-21T00:08:42.841Z,4.60
2019-04-21T00:11:16.173Z,5.05
2019-04-21T00:13:39.687Z,5.45
2019-04-21T00:16:00.328Z,5.67
2019-04-21T00:18:51.941Z,5.22
2019-04-21T00:21:25.510Z,6.10
2019-04-21T00:24:00.397Z,5.42
2019-04-21T00:26:33.315Z,5.75
2019-04-21T00:29:12.508Z,6.67
2019-04-21T00:31:35.287Z,8.05
2019-04-21T00:33:51.960Z,7.12
2019-04-21T00:36:27.803Z,6.17
2019-04-21T00:39:28.980Z,5.75
2019-04-21T00:41:48.418Z,6.08
2019-04-21T00:44:12.626Z,5.40
2019-04-21T00:46:44.886Z,5.85
2019-04-21T00:49:18.181Z,5.87
2019-04-21T00:52:11.455Z,5.42
2019-04-21T00:54:45.921Z,5.03
2019-04-21T00:57:11.611Z,5.70
2019-04-21T00:59:40.287Z,5.62
2019-04-21T01:02:09.838Z,5.35
2019-04-21T01:04:42.881Z,5.17
2019-04-21T01:07:12.581Z,5.40
2019-04-21T01:09:42.516Z,5.67
2019-04-21T01:12:12.618Z,5.72
2019-04-21T01:14:56.888Z,5.22
2019-04-21T01:17:23.008Z,5.70
2019-04-21T01:19:44.134Z,5.90
2019-04-21T01:22:02.717Z,5.67
2019-04-21T01:24:37.904Z,5.62
2019-04-21T01:27:12.705Z,5.72
2019-04-21T01:29:54.913Z,5.72
2019-04-21T01:32:31.190Z,6.30
2019-04-21T01:34:58.198Z,6.58
2019-04-21T01:37:34.404Z,5.87
2019-04-21T01:40:14.356Z,5.35
2019-04-21T01:42:33.474Z,5.60
2019-04-21T01:45:05.491Z,5.35
2019-04-21T01:47:31.423Z,4.53
2019-04-21T01:49:55.594Z,5.00
2019-04-21T01:52:47.953Z,4.55
2019-04-21T01:55:23.456Z,4.45
2019-04-21T01:57:49.579Z,4.70
2019-04-21T02:00:13.649Z,4.90
2019-04-21T02:02:59.408Z,5.03
2019-04-21T02:05:31.283Z,4.72
2019-04-21T02:07:59.798Z,4.97
2019-04-21T02:10:34.548Z,4.72
2019-04-21T02:13:03.527Z,4.40
2019-04-21T02:15:46.674Z,4.30
2019-04-21T02:18:07.323Z,4.30
2019-04-21T02:20:29.168Z,4.87
2019-04-21T02:25:44.659Z,4.53
2019-04-21T02:28:24.014Z,4.58
2019-04-21T02:31:04.963Z,4.45
2019-04-21T02:36:24.670Z,4.80
2019-04-21T02:38:44.842Z,5.05
2019-04-21T02:43:25.634Z,4.85
2019-04-21T02:46:04.244Z,4.60
2019-04-21T02:48:38.279Z,4.90
2019-04-21T02:53:53.660Z,4.62
2019-04-21T02:56:11.189Z,5.12
2019-04-21T03:01:50.300Z,5.22
2019-04-21T03:04:30.371Z,5.08
2019-04-21T03:07:07.043Z,4.83
2019-04-21T03:09:31.794Z,5.30
2019-04-21T03:14:50.341Z,5.83
2019-04-21T03:17:05.384Z,5.87
2019-04-21T03:19:45.199Z,6.08
2019-04-21T03:22:12.295Z,7.22
2019-04-21T03:24:53.400Z,5.97
2019-04-21T03:27:17.271Z,6.50
2019-04-21T03:29:45.570Z,6.25
2019-04-21T03:39:56.807Z,5.42
2019-04-21T03:45:06.957Z,4.92
2019-04-21T03:47:26.884Z,4.85
2019-04-21T03:49:54.720Z,5.30
2019-04-21T04:03:30.051Z,4.83
2019-04-21T04:08:31.891Z,5.20
2019-04-21T04:11:02.721Z,4.92
2019-04-21T04:13:39.367Z,6.00
2019-04-21T04:16:05.899Z,5.12
2019-04-21T04:18:40.825Z,6.15
2019-04-21T04:21:03.594Z,5.35
2019-04-21T04:23:41.664Z,5.37
2019-04-21T04:26:09.055Z,5.50
2019-04-21T04:28:49.877Z,5.28
2019-04-21T04:36:33.894Z,5.55
2019-04-21T04:38:52.263Z,5.30
2019-04-21T04:43:54.597Z,5.10
2019-04-21T04:46:17.888Z,5.42
2019-04-21T04:48:54.994Z,4.78
2019-04-21T04:51:36.711Z,5.08
2019-04-21T05:01:32.375Z,5.12
2019-04-21T05:04:20.567Z,4.90
2019-04-21T05:19:16.279Z,4.97
2019-04-21T05:23:59.985Z,8.45
2019-04-21T05:26:33.395Z,7.83
2019-04-21T05:29:00.672Z,7.92
2019-04-21T05:31:47.704Z,8.48
2019-04-21T05:34:16.985Z,8.08
2019-04-21T05:36:59.545Z,6.20
2019-04-21T05:39:41.956Z,6.50
2019-04-21T05:42:04.974Z,5.47
2019-04-21T05:45:01.826Z,5.37
2019-04-21T05:47:29.558Z,4.92
2019-04-21T05:49:55.651Z,5.00
2019-04-21T05:52:25.162Z,5.47
2019-04-21T05:55:05.292Z,5.08
2019-04-21T05:57:28.871Z,4.95
2019-04-21T06:00:01.213Z,5.40
2019-04-21T06:02:35.507Z,5.10
2019-04-21T06:07:40.986Z,5.22
2019-04-21T06:10:08.920Z,5.30
2019-04-21T06:12:44.970Z,5.17
2019-04-21T06:15:14.223Z,5.05
2019-04-21T06:17:43.916Z,5.47
2019-04-21T06:20:15.362Z,5.30
2019-04-21T06:22:50.516Z,4.65
2019-04-21T06:27:51.214Z,5.28
2019-04-21T06:30:24.000Z,5.42
2019-04-21T06:32:52.648Z,5.20
2019-04-21T06:35:45.542Z,5.45
2019-04-21T06:38:04.661Z,5.62
2019-04-21T06:40:38.641Z,5.95
2019-04-21T06:43:19.657Z,5.95
2019-04-21T06:45:45.841Z,6.03
2019-04-21T06:48:10.992Z,5.47
2019-04-21T06:50:47.534Z,4.92
2019-04-21T06:53:15.439Z,5.47
2019-04-21T06:55:41.936Z,6.65
2019-04-21T06:58:10.166Z,11.90
2019-04-21T07:00:43.230Z,9.53
2019-04-21T07:03:20.793Z,8.65
2019-04-21T07:05:58.968Z,6.28
2019-04-21T07:08:31.301Z,6.28
2019-04-21T07:10:52.090Z,5.62
2019-04-21T07:13:22.214Z,4.90
2019-04-21T07:16:02.911Z,5.70
2019-04-21T07:18:32.751Z,5.78
2019-04-21T07:20:56.378Z,5.80
2019-04-21T07:23:30.299Z,4.95
2019-04-21T07:25:57.907Z,5.03
2019-04-21T07:28:32.225Z,5.10
2019-04-21T07:31:03.718Z,4.78
2019-04-21T07:36:01.402Z,5.83
2019-04-21T07:38:33.244Z,5.33
2019-04-21T07:40:59.453Z,5.45
2019-04-21T07:43:29.752Z,5.25
2019-04-21T07:46:04.209Z,5.05
2019-04-21T07:48:49.888Z,5.17
2019-04-21T07:51:42.014Z,5.30
2019-04-21T07:54:13.407Z,5.30
2019-04-21T07:56:23.245Z,4.80
2019-04-21T07:59:31.553Z,5.20
2019-04-21T08:01:44.798Z,4.85
2019-04-21T08:04:33.268Z,4.80
2019-04-21T08:06:47.742Z,4.85
2019-04-21T08:09:11.908Z,4.97
2019-04-21T08:11:46.262Z,4.85
2019-04-21T08:14:18.122Z,4.85
2019-04-21T08:16:52.719Z,4.95
2019-04-21T08:19:18.986Z,4.08
2019-04-21T08:21:57.835Z,4.55
2019-04-21T08:24:19.800Z,5.05
2019-04-21T08:26:58.669Z,4.62
2019-04-21T08:32:02.609Z,4.75
2019-04-21T08:36:58.859Z,4.25
2019-04-21T08:39:37.314Z,4.53
2019-04-21T08:42:04.433Z,4.08
2019-04-21T08:44:40.094Z,3.80
2019-04-21T08:47:07.419Z,3.70
2019-04-21T08:49:41.490Z,3.90
2019-04-21T08:52:15.259Z,3.58
2019-04-21T08:54:43.978Z,3.47
2019-04-21T08:57:20.152Z,3.50
2019-04-21T08:59:55.218Z,3.55
2019-04-21T09:02:34.075Z,3.00
2019-04-21T09:04:58.513Z,3.45
2019-04-21T09:07:33.088Z,3.22
2019-04-21T09:10:04.230Z,3.20
2019-04-21T09:12:34.711Z,3.40
2019-04-21T09:15:08.828Z,3.05
2019-04-21T09:17:31.605Z,3.30
2019-04-21T09:20:13.394Z,3.30
2019-04-21T09:22:35.827Z,3.30
2019-04-21T09:25:09.545Z,2.65
2019-04-21T09:27:36.607Z,3.20
2019-04-21T09:29:59.349Z,3.00
2019-04-21T09:32:29.418Z,3.35
2019-04-21T09:34:58.104Z,2.62
2019-04-21T09:37:39.999Z,2.22
2019-04-21T09:40:00.899Z,2.80
2019-04-21T09:42:35.981Z,2.95
2019-04-21T09:45:04.928Z,2.90
2019-04-21T09:47:40.195Z,3.17
2019-04-21T09:50:09.548Z,2.72
2019-04-21T09:52:45.154Z,2.50
2019-04-21T09:55:15.906Z,2.33
2019-04-21T09:57:48.506Z,2.30
2019-04-21T10:00:20.637Z,2.40
2019-04-21T10:02:56.793Z,2.50
2019-04-21T10:05:19.096Z,2.42
2019-04-21T10:07:49.037Z,2.40
2019-04-21T10:10:19.281Z,2.62
2019-04-21T10:12:49.951Z,3.00
2019-04-21T10:15:23.202Z,2.60
2019-04-21T10:17:56.089Z,3.00
2019-04-21T10:20:26.452Z,2.75
2019-04-21T10:22:57.302Z,2.67
2019-04-21T10:25:28.265Z,3.10
2019-04-21T10:27:59.058Z,2.87
2019-04-21T10:30:29.001Z,2.80
2019-04-21T10:32:58.618Z,4.70
2019-04-21T10:35:28.838Z,3.25
2019-04-21T10:38:11.009Z,5.75
2019-04-21T10:40:32.616Z,2.92
2019-04-21T10:43:01.457Z,3.60
2019-04-21T10:45:31.177Z,3.20
2019-04-21T10:48:00.991Z,4.72
2019-04-21T10:50:31.384Z,3.33
2019-04-21T10:53:18.816Z,4.95
2019-04-21T10:56:04.191Z,2.62
2019-04-21T10:58:30.487Z,2.47
2019-04-21T11:01:08.430Z,2.33
2019-04-21T11:03:41.415Z,2.47
2019-04-21T11:06:14.769Z,2.10
2019-04-21T11:08:48.889Z,2.30
2019-04-21T11:11:16.283Z,2.40
2019-04-21T11:13:46.394Z,4.85
2019-04-21T11:16:17.250Z,4.12
2019-04-21T11:18:48.201Z,2.65
2019-04-21T11:21:18.780Z,2.52
2019-04-21T11:23:48.545Z,2.47
2019-04-21T11:26:18.191Z,2.67
2019-04-21T11:28:48.977Z,3.50
2019-04-21T11:31:20.779Z,19.87
2019-04-21T11:33:51.170Z,8.48
2019-04-21T11:36:21.621Z,5.20
2019-04-21T11:39:12.411Z,3.10
2019-04-21T11:41:30.151Z,2.70
2019-04-21T11:44:01.335Z,2.35
2019-04-21T11:46:31.219Z,2.87
2019-04-21T11:49:02.238Z,3.17
2019-04-21T11:51:33.178Z,5.75
2019-04-21T11:54:03.019Z,4.45
2019-04-21T11:56:32.804Z,2.87
2019-04-21T11:59:03.764Z,14.47
2019-04-21T12:01:33.796Z,19.23
2019-04-21T12:04:03.719Z,16.80
2019-04-21T12:06:39.711Z,9.68
2019-04-21T12:09:08.083Z,5.00
2019-04-21T12:11:39.003Z,8.13
2019-04-21T12:14:09.903Z,4.20
2019-04-21T12:16:41.092Z,6.22
2019-04-21T12:19:10.982Z,4.00
2019-04-21T12:21:53.282Z,2.70
2019-04-21T12:24:13.186Z,7.95
2019-04-21T12:26:44.470Z,5.20
2019-04-21T12:29:14.658Z,5.00
2019-04-21T12:32:03.426Z,4.10
2019-04-21T12:34:34.288Z,4.80
2019-04-21T12:37:04.634Z,3.10
2019-04-21T12:39:34.754Z,3.37
2019-04-21T12:42:04.814Z,2.83
2019-04-21T12:44:34.567Z,3.22
2019-04-21T12:47:04.287Z,2.33
2019-04-21T12:49:33.926Z,3.65
2019-04-21T12:52:04.180Z,3.25
2019-04-21T12:54:35.392Z,3.58
2019-04-21T12:57:05.458Z,3.42
2019-04-21T12:59:36.299Z,3.60
2019-04-21T13:02:07.504Z,3.33
2019-04-21T13:04:37.849Z,2.83
2019-04-21T13:07:07.917Z,3.10
2019-04-21T13:09:38.093Z,2.60
2019-04-21T13:12:08.977Z,2.42
2019-04-21T13:14:39.885Z,2.62
2019-04-21T13:17:09.921Z,2.60
2019-04-21T13:19:41.136Z,3.15
2019-04-21T13:22:12.104Z,2.62
2019-04-21T13:24:42.151Z,2.60
2019-04-21T13:27:12.760Z,2.80
2019-04-21T13:29:43.939Z,2.67
2019-04-21T13:32:14.394Z,2.72
2019-04-21T13:34:44.420Z,2.65
2019-04-21T13:37:15.239Z,2.60
2019-04-21T13:40:18.171Z,2.75
2019-04-21T13:42:34.269Z,2.67
2019-04-21T13:45:00.587Z,2.97
2019-04-21T13:47:28.755Z,3.20
2019-04-21T13:49:59.836Z,3.10
2019-04-21T13:52:30.944Z,3.58
2019-04-21T13:55:01.235Z,3.58
2019-04-21T13:57:32.424Z,3.52
2019-04-21T14:00:03.502Z,2.90
2019-04-21T14:02:34.517Z,3.87
2019-04-21T14:05:08.535Z,3.10
2019-04-21T14:07:38.530Z,2.85
2019-04-21T14:10:10.999Z,3.30
2019-04-21T14:12:42.534Z,3.50
2019-04-21T14:15:14.636Z,3.20
2019-04-21T14:17:44.655Z,2.55
2019-04-21T14:20:15.298Z,2.92
2019-04-21T14:22:46.352Z,3.20
2019-04-21T14:25:17.480Z,3.67
2019-04-21T14:27:50.010Z,4.55
2019-04-21T14:30:20.759Z,5.17
2019-04-21T14:32:50.380Z,3.37
2019-04-21T14:35:20.923Z,3.92
2019-04-21T14:37:50.986Z,3.40
2019-04-21T14:40:25.509Z,2.92
2019-04-21T14:42:54.061Z,3.30
2019-04-21T14:45:32.645Z,3.30
2019-04-21T14:48:05.074Z,3.10
2019-04-21T14:50:40.006Z,3.37
2019-04-21T14:53:23.612Z,3.33
2019-04-21T14:55:53.408Z,3.08
2019-04-21T14:58:23.390Z,2.90
2019-04-21T15:01:04.183Z,3.22
2019-04-21T15:03:34.335Z,3.22
2019-04-21T15:06:05.427Z,3.22
2019-04-21T15:08:35.431Z,3.00
2019-04-21T15:11:05.417Z,3.05
2019-04-21T15:13:35.538Z,3.12
2019-04-21T15:16:06.902Z,2.60
2019-04-21T15:18:36.884Z,2.80
2019-04-21T15:21:07.778Z,3.02
2019-04-21T15:23:38.256Z,2.58
2019-04-21T15:26:08.397Z,2.80
2019-04-21T15:28:40.523Z,3.00
2019-04-21T15:31:12.795Z,3.15
2019-04-21T15:33:41.313Z,3.05
2019-04-21T15:36:11.298Z,2.77
2019-04-21T15:38:41.097Z,2.60
2019-04-21T15:41:11.314Z,2.92
2019-04-21T15:43:42.642Z,2.77
2019-04-21T15:46:13.109Z,2.92
2019-04-21T15:48:43.049Z,2.75
2019-04-21T15:51:13.650Z,3.58
2019-04-21T15:53:45.835Z,3.10
2019-04-21T15:56:24.550Z,3.33
2019-04-21T15:59:01.707Z,3.12
2019-04-21T16:01:34.448Z,2.58
2019-04-21T16:04:06.122Z,2.72
2019-04-21T16:06:35.714Z,2.60
2019-04-21T16:09:14.230Z,2.30
2019-04-21T16:11:42.076Z,3.50
2019-04-21T16:14:11.911Z,2.92
2019-04-21T16:16:41.526Z,3.27
2019-04-21T16:19:12.334Z,3.10
2019-04-21T16:21:44.405Z,3.50
2019-04-21T16:24:14.266Z,2.90
2019-04-21T16:26:44.609Z,2.65
2019-04-21T16:29:15.351Z,2.90
2019-04-21T16:31:45.189Z,2.40
2019-04-21T16:34:15.802Z,2.55
2019-04-21T16:36:45.710Z,2.58
2019-04-21T16:39:15.614Z,2.52
2019-04-21T16:41:46.603Z,2.55
2019-04-21T16:44:16.845Z,2.58
2019-04-21T16:46:47.518Z,2.10
2019-04-21T16:49:17.918Z,2.65
2019-04-21T16:51:49.975Z,2.90
2019-04-21T16:54:21.997Z,2.55
2019-04-21T16:56:54.090Z,2.77
2019-04-21T16:59:26.403Z,2.67
2019-04-21T17:01:56.606Z,2.80
2019-04-21T17:04:26.562Z,2.80
2019-04-21T17:06:56.187Z,2.47
2019-04-21T17:09:26.528Z,2.58
2019-04-21T17:11:59.959Z,2.33
2019-04-21T17:14:46.249Z,2.22
2019-04-21T17:17:19.085Z,2.45
2019-04-21T17:19:37.935Z,2.42
2019-04-21T17:22:01.883Z,2.45
2019-04-21T17:24:32.577Z,2.50
2019-04-21T17:27:02.868Z,2.30
2019-04-21T17:29:32.741Z,2.22
2019-04-21T17:32:04.764Z,1.90
2019-04-21T17:34:35.639Z,2.10
2019-04-21T17:37:05.785Z,2.25
2019-04-21T17:39:36.664Z,2.75
2019-04-21T17:42:18.157Z,3.17
2019-04-21T17:44:39.270Z,2.83
2019-04-21T17:47:21.474Z,3.37
2019-04-21T17:49:41.135Z,2.45
2019-04-21T17:52:16.297Z,2.27
2019-04-21T17:54:50.619Z,2.30
2019-04-21T17:57:36.683Z,2.00
2019-04-21T18:00:14.210Z,1.95
2019-04-21T18:02:43.405Z,2.00
2019-04-21T18:05:15.200Z,1.90
2019-04-21T18:07:55.983Z,2.10
2019-04-21T18:10:12.600Z,2.30
2019-04-21T18:12:39.773Z,2.20
2019-04-21T18:15:16.327Z,2.40
2019-04-21T18:17:28.902Z,1.90
2019-04-21T18:19:59.689Z,1.85
2019-04-21T18:22:49.407Z,2.12
2019-04-21T18:25:33.220Z,1.62
2019-04-21T18:27:52.454Z,1.65
2019-04-21T18:30:46.784Z,2.25
2019-04-21T18:33:22.218Z,2.02
2019-04-21T18:35:58.611Z,2.00
2019-04-21T18:38:55.046Z,2.00
2019-04-21T18:41:05.610Z,2.55
2019-04-21T18:44:10.398Z,2.17
2019-04-21T18:46:42.301Z,1.85
2019-04-21T18:48:57.216Z,1.87
2019-04-21T18:51:40.297Z,2.10
2019-04-21T18:54:20.986Z,1.80
2019-04-21T18:56:33.858Z,1.80
2019-04-21T18:59:04.449Z,2.15
2019-04-21T19:01:36.534Z,2.10
2019-04-21T19:04:12.474Z,1.92
2019-04-21T19:06:54.538Z,2.10
2019-04-21T19:09:35.311Z,2.10
2019-04-21T19:11:59.581Z,2.60
2019-04-21T19:14:36.379Z,2.58
2019-04-21T19:17:39.690Z,2.50
2019-04-21T19:19:44.214Z,2.45
2019-04-21T19:22:12.908Z,2.80
2019-04-21T19:27:19.256Z,2.40
2019-04-21T19:29:52.171Z,2.33
2019-04-21T19:32:22.567Z,2.42
2019-04-21T19:34:34.800Z,2.40
2019-04-21T19:37:08.920Z,2.20
2019-04-21T19:39:42.871Z,2.10
2019-04-21T19:42:18.584Z,2.40
2019-04-21T19:44:52.065Z,2.40
2019-04-21T19:47:28.097Z,2.77
2019-04-21T19:49:58.279Z,2.50
2019-04-21T19:52:22.487Z,2.27
2019-04-21T19:54:44.867Z,2.58
2019-04-21T19:57:13.132Z,2.50
2019-04-21T19:59:49.638Z,2.40
2019-04-21T20:02:14.352Z,2.60
2019-04-21T20:04:52.205Z,2.33
2019-04-21T20:07:28.921Z,2.35
2019-04-21T20:10:06.649Z,2.60
2019-04-21T20:12:39.940Z,3.08
2019-04-21T20:15:20.334Z,2.58
2019-04-21T20:17:36.438Z,2.50
2019-04-21T20:19:52.254Z,2.85
2019-04-21T20:22:25.648Z,2.70
2019-04-21T20:25:02.562Z,2.83
2019-04-21T20:27:36.286Z,2.55
2019-04-21T20:30:15.841Z,2.65
2019-04-21T20:32:49.327Z,2.85
2019-04-21T20:35:25.121Z,2.33
2019-04-21T20:37:47.993Z,2.65
2019-04-21T20:40:12.238Z,2.47
2019-04-21T20:42:49.410Z,2.67
2019-04-21T20:45:38.393Z,2.50
2019-04-21T20:47:44.717Z,2.55
2019-04-21T20:50:28.642Z,2.17
2019-04-21T20:52:58.287Z,2.90
2019-04-21T20:55:23.222Z,2.58
2019-04-21T20:57:59.578Z,2.62
2019-04-21T21:00:45.682Z,2.20
2019-04-21T21:03:12.080Z,2.87
2019-04-21T21:05:37.095Z,3.02
2019-04-21T21:08:18.021Z,2.95
2019-04-21T21:10:38.752Z,2.75
2019-04-21T21:13:22.949Z,2.72
2019-04-21T21:15:51.339Z,2.90
2019-04-21T21:18:26.196Z,2.50
2019-04-21T21:20:52.948Z,2.77
2019-04-21T21:23:14.513Z,2.67
2019-04-21T21:25:52.989Z,3.05
2019-04-21T21:28:22.747Z,2.75
2019-04-21T21:30:52.695Z,2.80
2019-04-21T21:33:22.917Z,2.95
2019-04-21T21:35:56.724Z,2.90
2019-04-21T21:38:30.954Z,3.20
2019-04-21T21:40:54.637Z,2.77
2019-04-21T21:43:19.215Z,2.90
2019-04-21T21:45:52.129Z,2.83
2019-04-21T21:48:31.841Z,3.92
2019-04-21T21:51:02.054Z,4.35
2019-04-21T21:53:23.752Z,3.40
2019-04-21T21:55:53.008Z,2.90
2019-04-21T21:58:27.463Z,2.90
2019-04-21T22:01:00.507Z,2.80
2019-04-21T22:03:33.493Z,3.00
2019-04-21T22:06:04.986Z,2.42
2019-04-21T22:08:32.275Z,2.92
2019-04-21T22:11:03.306Z,3.12
2019-04-21T22:13:43.624Z,2.87
2019-04-21T22:16:10.385Z,3.15
2019-04-21T22:18:56.534Z,3.65
2019-04-21T22:21:18.916Z,3.20
2019-04-21T22:23:52.746Z,2.83
2019-04-21T22:26:11.442Z,3.20
2019-04-21T22:28:41.295Z,3.02
2019-04-21T22:31:16.398Z,3.25
2019-04-21T22:33:48.377Z,2.83
2019-04-21T22:36:26.473Z,2.98
2019-04-21T22:39:01.527Z,2.92
2019-04-21T22:41:28.189Z,3.10
2019-04-21T22:43:51.600Z,3.33
2019-04-21T22:46:20.244Z,2.83
2019-04-21T22:48:54.669Z,3.08
2019-04-21T22:51:30.289Z,3.02
2019-04-21T22:53:55.823Z,3.60
2019-04-21T22:56:29.720Z,3.00
2019-04-21T22:58:57.029Z,3.05
2019-04-21T23:01:34.855Z,3.27
2019-04-21T23:04:02.442Z,3.17
2019-04-21T23:06:32.685Z,3.15
2019-04-21T23:09:01.206Z,3.02
2019-04-21T23:11:38.671Z,3.22
2019-04-21T23:14:06.577Z,2.95
2019-04-21T23:16:37.810Z,3.10
2019-04-21T23:19:20.064Z,3.42
2019-04-21T23:21:58.156Z,3.42
2019-04-21T23:24:31.688Z,3.10
2019-04-21T23:26:53.713Z,3.37
2019-04-21T23:29:41.248Z,3.05
2019-04-21T23:31:59.197Z,3.15
2019-04-21T23:34:23.654Z,2.77
2019-04-21T23:36:53.085Z,2.83
2019-04-21T23:39:23.702Z,2.90
2019-04-21T23:41:51.598Z,3.20
2019-04-21T23:44:22.002Z,2.77
2019-04-21T23:46:54.677Z,3.30
2019-04-21T23:49:35.143Z,3.42
2019-04-21T23:52:00.472Z,2.98
2019-04-21T23:54:25.205Z,3.08
2019-04-21T23:56:55.925Z,3.25
2019-04-21T23:59:30.233Z,3.00
